Airfield :
LOGIN :

Register | Disclaimer

   EN    FR    IT 

 










Legend :    VFR   Marginal VFR   IFR   Intensive IFR   Very Intensive IFR
Visi :
Ceiling :
>= 8 km
>= 3000ft
5 to 8 km
1000 to 3000 ft
1500m to 5 km
500 to 1000 ft
800 to 1500m
200 to 500 ft
< 800m
< 200 ft
Symbols :   Thunderstorms  Fog  Heavy snow  Heavy precipitations  Wind > 20 kt
SIGMETs :     Misc.  Thunderstorms  Icing  Turbulence  Mountain Waves  Volcanic Ashes






- Airport Elevation : 14 ft
- IATA code : BRE


EDDW - Bremen Neuenland

CURRENT METAR :
  • 200820Z AUTO 25005KT 160V270 9999 SCT021 16/10 Q1021 NOSIG

EXPIRED METARs :
  • 200750Z AUTO VRB02KT 9999 BKN019 16/10 Q1021 NOSIG
  • 200720Z AUTO 25004KT 200V340 9999 SCT019 16/11 Q1021 NOSIG
  • 200650Z AUTO 26004KT 170V340 9999 BKN017 14/10 Q1022 NOSIG
  • 200620Z AUTO 28005KT 250V310 9999 BKN016 14/10 Q1021 NOSIG
  • 200550Z AUTO 26005KT 230V300 9999 FEW014 14/11 Q1022 NOSIG
  • 200520Z AUTO 24003KT 200V280 CAVOK 13/11 Q1021 NOSIG

TAF TAF EDDW
Valid from the 20 at 06:00 until the 21 at 06:00 UTC


200500Z 2006/2106 29005KT 9999 SCT020
BECMG 2007/2009 VRB02KT
BECMG 2011/2013 09007KT
BECMG 2015/2017 32008KT RA
BECMG 2020/2022 NSW
TEMPO 2022/2106 27015G25KT 4500 -RA BR BKN007
BECMG 2100/2102 26013KT



MET'MAP, your aeronautical weather chart ! - Copyright ORBIFLY December 2007 - Disclaimer

ORBIFLY MET'MAP TEAM :

Programming & Development : Alexandra Zaïnal
Original concept : Baudouin d'Aumeries
Technical & hardware support : Manuel Goepfert
Assistance : Marc-Olivier Méhu

Contact : metmap@orbifly.com




SOURCES & CREDITS :

   NOAA